Time;durP1;ratioP1;P1;durP2;ratioP2;P2;SDS_P1;SDS_P2;PMS_P1;PMS_P2;Temp;Humidity;BMP_temperature;BMP_pressure;BME280_temperature;BME280_humidity;BME280_pressure;Samples;Min_cycle;Max_cycle;Signal;HPM_P1;HPM_P2
2023/03/11 00:00:59;;;;;;;0.20;0.20;;;0.00;99.90;;;;;;5054277;28;20382;-75
2023/03/11 00:03:26;;;;;;;0.20;0.20;;;0.10;99.90;;;;;;5053439;28;20464;-75
2023/03/11 00:05:53;;;;;;;0.20;0.20;;;0.10;99.90;;;;;;5053882;28;20057;-75
2023/03/11 00:08:22;;;;;;;0.20;0.20;;;0.00;99.90;;;;;;5053902;28;20052;-75
2023/03/11 00:10:52;;;;;;;0.17;0.17;;;0.10;99.90;;;;;;5053796;28;20075;-75
2023/03/11 00:13:17;;;;;;;0.20;0.20;;;0.00;99.90;;;;;;5053688;28;20033;-75
2023/03/11 00:15:45;;;;;;;0.20;0.20;;;0.00;99.90;;;;;;5035837;28;20017;-75
2023/03/11 00:18:11;;;;;;;0.20;0.20;;;0.00;99.90;;;;;;5053593;28;20032;-75
2023/03/11 00:20:40;;;;;;;0.20;0.20;;;0.00;99.90;;;;;;5053629;28;20074;-75
2023/03/11 00:23:07;;;;;;;0.30;0.30;;;0.00;99.90;;;;;;5053883;28;20021;-75
2023/03/11 00:25:34;;;;;;;0.20;0.20;;;0.10;99.90;;;;;;5053559;28;20375;-75
2023/03/11 00:28:00;;;;;;;0.20;0.20;;;0.10;99.90;;;;;;5053354;28;20039;-75
2023/03/11 00:30:27;;;;;;;0.20;0.20;;;0.10;99.90;;;;;;5035641;28;20115;-75
2023/03/11 00:32:55;;;;;;;0.20;0.20;;;0.10;99.90;;;;;;5053347;28;20025;-75
2023/03/11 00:35:27;;;;;;;0.20;0.20;;;0.10;99.90;;;;;;5053599;28;20459;-75
2023/03/11 00:37:55;;;;;;;0.10;0.10;;;0.00;99.90;;;;;;5053098;28;20371;-75
2023/03/11 00:40:22;;;;;;;0.20;0.20;;;0.00;99.90;;;;;;5053589;28;20029;-75
2023/03/11 00:42:48;;;;;;;0.20;0.20;;;0.00;99.90;;;;;;5053692;28;20079;-75
2023/03/11 00:45:15;;;;;;;0.20;0.20;;;0.00;99.90;;;;;;5053308;28;20029;-75
2023/03/11 00:47:41;;;;;;;0.20;0.20;;;-0.10;99.90;;;;;;5053293;28;20082;-74
2023/03/11 00:50:08;;;;;;;0.20;0.20;;;0.00;99.90;;;;;;5053387;28;20040;-75
2023/03/11 00:52:34;;;;;;;0.20;0.20;;;-0.10;99.90;;;;;;5053154;28;20111;-75
2023/03/11 00:54:59;;;;;;;0.20;0.20;;;-0.20;99.90;;;;;;5053152;28;20052;-75
2023/03/11 00:57:27;;;;;;;0.10;0.10;;;-0.30;99.90;;;;;;5053087;28;20021;-75
2023/03/11 00:59:53;;;;;;;0.20;0.20;;;-0.40;99.90;;;;;;5035183;28;20024;-76
2023/03/11 01:02:19;;;;;;;0.30;0.30;;;-0.40;99.90;;;;;;5035113;28;20034;-75
2023/03/11 01:04:45;;;;;;;0.20;0.20;;;-0.60;99.90;;;;;;5052922;28;20111;-75
2023/03/11 01:07:10;;;;;;;0.20;0.20;;;-0.60;99.90;;;;;;5053023;28;20375;-76
2023/03/11 01:09:36;;;;;;;0.20;0.20;;;-0.70;99.90;;;;;;5052865;28;20466;-76
2023/03/11 01:12:01;;;;;;;0.20;0.20;;;-0.60;99.90;;;;;;5053142;28;20029;-75
2023/03/11 01:14:27;;;;;;;0.20;0.20;;;-0.60;99.90;;;;;;5052970;28;20017;-75
2023/03/11 01:16:54;;;;;;;0.20;0.20;;;-0.50;99.90;;;;;;5056044;28;20021;-75
2023/03/11 01:19:19;;;;;;;0.25;0.25;;;-0.40;99.90;;;;;;5039089;28;20504;-75
2023/03/11 01:21:45;;;;;;;0.20;0.20;;;-0.40;99.90;;;;;;5057024;28;20028;-75
2023/03/11 01:24:10;;;;;;;0.20;0.20;;;-0.30;99.90;;;;;;5057243;28;20083;-75
2023/03/11 01:26:36;;;;;;;0.20;0.20;;;-0.30;99.90;;;;;;5039041;28;20478;-75
2023/03/11 01:29:02;;;;;;;0.20;0.20;;;-0.30;99.90;;;;;;5057091;28;20432;-75
2023/03/11 01:31:28;;;;;;;0.20;0.20;;;-0.30;99.90;;;;;;5056787;28;20021;-76
2023/03/11 01:33:53;;;;;;;0.28;0.28;;;-0.30;99.90;;;;;;5056808;28;20021;-76
2023/03/11 01:36:19;;;;;;;0.20;0.20;;;-0.40;99.90;;;;;;5056755;28;20062;-76
2023/03/11 01:38:44;;;;;;;0.20;0.20;;;-0.40;99.90;;;;;;5057133;28;20025;-76
2023/03/11 01:41:11;;;;;;;0.20;0.20;;;-0.50;99.90;;;;;;5056665;28;20078;-76
2023/03/11 01:43:42;;;;;;;0.20;0.20;;;-0.60;99.90;;;;;;5038699;28;20025;-75
2023/03/11 01:46:16;;;;;;;0.10;0.10;;;-0.70;99.90;;;;;;5038662;28;20032;-76
2023/03/11 01:48:46;;;;;;;0.10;0.10;;;-0.90;99.90;;;;;;5056665;28;20168;-76
2023/03/11 01:51:13;;;;;;;0.20;0.20;;;-1.00;99.90;;;;;;5038556;28;20082;-76
2023/03/11 01:53:38;;;;;;;0.20;0.20;;;-1.00;99.90;;;;;;5056468;28;20497;-75
2023/03/11 01:56:05;;;;;;;0.20;0.20;;;-1.20;99.90;;;;;;5038527;28;20034;-76
2023/03/11 01:58:36;;;;;;;0.20;0.20;;;-1.30;99.90;;;;;;5056553;28;20104;-75
2023/03/11 02:01:03;;;;;;;0.20;0.20;;;-1.30;99.90;;;;;;5056322;28;20028;-75
2023/03/11 02:03:32;;;;;;;0.20;0.20;;;-1.40;99.90;;;;;;5056312;28;20029;-75
2023/03/11 02:06:01;;;;;;;0.20;0.20;;;-1.50;99.90;;;;;;5038288;28;20025;-75
2023/03/11 02:08:28;;;;;;;0.20;0.20;;;-1.60;99.90;;;;;;5056058;28;20025;-75
2023/03/11 02:10:55;;;;;;;0.20;0.20;;;-1.60;99.90;;;;;;5038226;28;20120;-75
2023/03/11 02:13:22;;;;;;;0.20;0.20;;;-1.60;99.90;;;;;;5055973;28;20456;-76
2023/03/11 02:15:48;;;;;;;0.20;0.20;;;-1.60;99.90;;;;;;5056004;28;20052;-75
2023/03/11 02:18:14;;;;;;;0.13;0.13;;;-1.60;99.90;;;;;;5037979;28;20060;-75
2023/03/11 02:21:07;;;;;;;0.25;0.25;;;-1.50;99.90;;;;;;5056147;28;20041;-75
2023/03/11 02:24:00;;;;;;;0.20;0.20;;;-1.50;99.90;;;;;;5037976;28;20025;-76
2023/03/11 02:26:53;;;;;;;0.20;0.20;;;-1.70;99.90;;;;;;5049466;28;20268;-76
2023/03/11 02:29:20;;;;;;;0.20;0.20;;;-1.90;99.90;;;;;;5033736;28;20037;-75
2023/03/11 02:31:47;;;;;;;0.20;0.20;;;-2.00;99.90;;;;;;5037644;28;20426;-75
2023/03/11 02:34:24;;;;;;;0.20;0.20;;;-2.10;99.90;;;;;;5037825;28;20036;-76
2023/03/11 02:36:49;;;;;;;0.13;0.13;;;-2.20;99.90;;;;;;5037746;28;20074;-76
2023/03/11 02:39:15;;;;;;;0.30;0.30;;;-2.20;99.90;;;;;;5055546;28;20025;-76
2023/03/11 02:41:44;;;;;;;0.20;0.20;;;-2.30;99.90;;;;;;5055475;28;20033;-76
2023/03/11 02:44:12;;;;;;;0.25;0.25;;;-2.30;99.90;;;;;;5055771;28;20061;-76
2023/03/11 02:46:40;;;;;;;0.20;0.20;;;-2.40;99.90;;;;;;5055452;28;20075;-76
2023/03/11 02:49:06;;;;;;;0.20;0.20;;;-2.50;99.90;;;;;;5055331;28;20029;-76
2023/03/11 02:51:32;;;;;;;0.20;0.20;;;-2.50;99.90;;;;;;5055293;28;20025;-76
2023/03/11 02:54:01;;;;;;;0.20;0.20;;;-2.60;99.90;;;;;;5055303;28;20044;-75
2023/03/11 02:56:27;;;;;;;0.20;0.20;;;-2.60;99.90;;;;;;5055548;28;20025;-76
2023/03/11 02:58:53;;;;;;;0.30;0.30;;;-2.70;99.90;;;;;;5037309;28;20025;-76
2023/03/11 03:01:18;;;;;;;0.20;0.20;;;-2.80;99.90;;;;;;5055441;28;20025;-76
2023/03/11 03:03:44;;;;;;;0.30;0.30;;;-2.80;99.90;;;;;;5055155;28;20017;-76
2023/03/11 03:06:10;;;;;;;0.20;0.20;;;-2.90;99.90;;;;;;5055078;28;20489;-76
2023/03/11 03:08:36;;;;;;;0.30;0.30;;;-3.00;99.90;;;;;;5055525;28;20071;-76
2023/03/11 03:11:02;;;;;;;0.20;0.20;;;-3.00;99.90;;;;;;5054992;28;20042;-76
2023/03/11 03:13:28;;;;;;;0.20;0.20;;;-3.00;99.90;;;;;;5036972;28;20037;-76
2023/03/11 03:15:54;;;;;;;0.10;0.10;;;-3.00;99.90;;;;;;5054924;28;20028;-76
2023/03/11 03:18:19;;;;;;;0.20;0.20;;;-3.00;99.90;;;;;;5054816;28;20025;-76
2023/03/11 03:20:45;;;;;;;0.20;0.20;;;-3.00;99.90;;;;;;5054806;28;20029;-76
2023/03/11 03:23:11;;;;;;;0.10;0.10;;;-3.00;99.90;;;;;;5054795;28;20028;-76
2023/03/11 03:25:36;;;;;;;0.20;0.20;;;-3.00;99.90;;;;;;5055069;28;20390;-76
2023/03/11 03:28:02;;;;;;;0.20;0.20;;;-2.90;99.90;;;;;;5036784;28;20032;-76
2023/03/11 03:30:28;;;;;;;0.10;0.10;;;-2.90;99.90;;;;;;5054618;28;20024;-76
2023/03/11 03:32:54;;;;;;;0.17;0.17;;;-3.00;99.90;;;;;;5054501;28;20025;-76
2023/03/11 03:35:20;;;;;;;0.20;0.20;;;-3.00;99.90;;;;;;5054602;28;20392;-76
2023/03/11 03:37:45;;;;;;;0.20;0.20;;;-2.90;99.90;;;;;;5054652;28;20024;-76
2023/03/11 03:40:11;;;;;;;0.10;0.10;;;-2.90;99.90;;;;;;5053945;28;20561;-76
2023/03/11 03:42:37;;;;;;;0.10;0.10;;;-2.90;99.90;;;;;;5054676;28;20035;-76
2023/03/11 03:45:05;;;;;;;0.20;0.20;;;-2.80;99.90;;;;;;5054365;28;20060;-76
2023/03/11 03:47:32;;;;;;;0.20;0.20;;;-2.80;99.90;;;;;;5054144;28;20021;-76
2023/03/11 03:49:57;;;;;;;0.20;0.20;;;-2.90;99.90;;;;;;5054204;28;20071;-76
2023/03/11 03:52:23;;;;;;;0.20;0.20;;;-2.90;99.90;;;;;;5054178;28;20052;-76
2023/03/11 03:54:48;;;;;;;0.20;0.20;;;-3.00;99.90;;;;;;5054479;28;20438;-76
2023/03/11 03:57:14;;;;;;;0.20;0.20;;;-2.90;99.90;;;;;;5054095;28;20025;-76
2023/03/11 03:59:39;;;;;;;0.13;0.13;;;-3.00;99.90;;;;;;5054029;28;20100;-76
2023/03/11 04:02:05;;;;;;;0.20;0.20;;;-3.00;99.90;;;;;;5036148;28;20098;-76
2023/03/11 04:04:31;;;;;;;0.20;0.20;;;-2.90;99.90;;;;;;5053964;28;20116;-76
2023/03/11 04:06:57;;;;;;;0.20;0.20;;;-3.00;99.90;;;;;;5036028;28;20017;-76
2023/03/11 04:09:23;;;;;;;0.28;0.28;;;-2.90;99.90;;;;;;5035908;28;20032;-76
2023/03/11 04:11:48;;;;;;;0.20;0.20;;;-2.90;99.90;;;;;;5035899;28;20025;-76
2023/03/11 04:14:14;;;;;;;0.20;0.20;;;-2.80;99.90;;;;;;5035950;28;20029;-76
2023/03/11 04:16:39;;;;;;;0.28;0.28;;;-2.60;99.90;;;;;;5054017;28;20024;-76
2023/03/11 04:19:05;;;;;;;0.20;0.20;;;-2.40;99.90;;;;;;5053742;28;20104;-76
2023/03/11 04:21:31;;;;;;;0.20;0.20;;;-2.30;99.90;;;;;;5035823;28;20437;-76
2023/03/11 04:23:58;;;;;;;0.20;0.20;;;-2.40;99.90;;;;;;5053623;28;20052;-76
2023/03/11 04:26:23;;;;;;;0.20;0.20;;;-2.40;99.90;;;;;;5053569;28;20020;-76
2023/03/11 04:28:49;;;;;;;0.20;0.20;;;-2.50;99.90;;;;;;5053494;28;20021;-75
2023/03/11 04:31:14;;;;;;;0.20;0.20;;;-2.50;99.90;;;;;;5053807;28;20025;-75
2023/03/11 04:33:40;;;;;;;0.20;0.20;;;-2.60;99.90;;;;;;5053518;28;20448;-75
2023/03/11 04:36:07;;;;;;;0.20;0.20;;;-2.60;99.90;;;;;;5053574;28;20017;-75
2023/03/11 04:38:33;;;;;;;0.20;0.20;;;-2.80;99.90;;;;;;5035482;28;20067;-75
2023/03/11 04:41:00;;;;;;;0.20;0.20;;;-2.80;99.90;;;;;;5053555;28;20422;-75
2023/03/11 04:43:25;;;;;;;0.10;0.10;;;-2.90;99.90;;;;;;5053866;28;20021;-76
2023/03/11 04:45:51;;;;;;;0.13;0.13;;;-2.80;99.90;;;;;;5035381;28;20029;-76
2023/03/11 04:48:17;;;;;;;0.20;0.20;;;-2.70;99.90;;;;;;5053085;28;20025;-76
2023/03/11 04:50:42;;;;;;;0.20;0.20;;;-2.70;99.90;;;;;;5053088;28;20508;-75
2023/03/11 04:53:08;;;;;;;0.20;0.20;;;-2.80;99.90;;;;;;5053128;28;20443;-76
2023/03/11 04:55:34;;;;;;;0.30;0.30;;;-3.00;99.90;;;;;;5053446;28;20032;-76
2023/03/11 04:58:00;;;;;;;0.20;0.20;;;-3.10;99.90;;;;;;5035215;28;20100;-76
2023/03/11 05:00:25;;;;;;;0.10;0.10;;;-3.00;99.90;;;;;;5053075;28;20029;-76
2023/03/11 05:02:51;;;;;;;0.30;0.30;;;-3.10;99.90;;;;;;5053062;28;20079;-76
2023/03/11 05:05:20;;;;;;;0.20;0.20;;;-3.30;99.90;;;;;;5053042;28;20035;-76
2023/03/11 05:07:45;;;;;;;0.22;0.22;;;-3.40;99.90;;;;;;5053229;28;20083;-76
2023/03/11 05:10:12;;;;;;;0.28;0.28;;;-3.40;99.90;;;;;;5052983;28;20033;-76
2023/03/11 05:12:37;;;;;;;0.30;0.30;;;-3.50;99.90;;;;;;5035063;28;20029;-76
2023/03/11 05:15:03;;;;;;;0.20;0.20;;;-3.60;99.90;;;;;;5053228;28;20105;-76
2023/03/11 05:17:29;;;;;;;0.10;0.10;;;-3.70;99.90;;;;;;5034928;28;20045;-76
2023/03/11 05:19:54;;;;;;;0.20;0.20;;;-3.80;99.90;;;;;;5035058;28;20025;-76
2023/03/11 05:22:21;;;;;;;0.20;0.20;;;-3.80;99.90;;;;;;5052925;28;20025;-76
2023/03/11 05:24:47;;;;;;;0.20;0.20;;;-3.80;99.90;;;;;;5052845;28;20029;-76
2023/03/11 05:27:15;;;;;;;0.25;0.25;;;-3.80;99.90;;;;;;5035002;28;20025;-76
2023/03/11 05:29:41;;;;;;;0.15;0.15;;;-3.80;99.90;;;;;;5052736;28;20486;-76
2023/03/11 05:32:07;;;;;;;0.20;0.20;;;-3.90;99.90;;;;;;5034869;28;20123;-76
2023/03/11 05:34:32;;;;;;;0.20;0.20;;;-3.90;99.90;;;;;;5052762;28;20466;-76
2023/03/11 05:36:58;;;;;;;0.20;0.20;;;-4.00;99.90;;;;;;5053016;28;20021;-76
2023/03/11 05:39:23;;;;;;;0.20;0.20;;;-4.00;99.90;;;;;;5052640;28;20013;-76
2023/03/11 05:41:49;;;;;;;0.30;0.30;;;-4.00;99.90;;;;;;5052676;28;20025;-76
2023/03/11 05:44:14;;;;;;;0.20;0.20;;;-4.00;99.90;;;;;;5034787;28;20107;-76
2023/03/11 05:46:40;;;;;;;0.15;0.15;;;-4.00;99.90;;;;;;5052656;28;20032;-76
2023/03/11 05:49:06;;;;;;;0.30;0.30;;;-4.20;99.90;;;;;;5052421;28;20402;-76
2023/03/11 05:51:31;;;;;;;0.20;0.20;;;-4.20;99.90;;;;;;5034656;28;20036;-76
2023/03/11 05:53:57;;;;;;;0.20;0.20;;;-4.20;99.90;;;;;;5052614;28;20021;-76
2023/03/11 05:56:23;;;;;;;0.10;0.10;;;-4.20;99.90;;;;;;5052538;28;20497;-76
2023/03/11 05:58:49;;;;;;;0.20;0.20;;;-4.10;99.90;;;;;;5034657;28;20494;-76
2023/03/11 06:01:17;;;;;;;0.20;0.20;;;-4.20;99.90;;;;;;5052534;28;20060;-76
2023/03/11 06:03:43;;;;;;;0.20;0.20;;;-4.20;99.90;;;;;;5038391;28;20028;-76
2023/03/11 06:06:11;;;;;;;0.20;0.20;;;-4.20;99.90;;;;;;5056249;28;20025;-76
2023/03/11 06:08:36;;;;;;;0.30;0.30;;;-4.30;99.90;;;;;;5038197;28;20025;-76
2023/03/11 06:11:04;;;;;;;0.20;0.20;;;-4.40;99.90;;;;;;5056400;28;20359;-76
2023/03/11 06:13:30;;;;;;;0.20;0.20;;;-4.30;99.90;;;;;;5056091;28;20029;-76
2023/03/11 06:15:56;;;;;;;0.20;0.20;;;-4.20;99.90;;;;;;5056070;28;20108;-76
2023/03/11 06:18:22;;;;;;;0.25;0.25;;;-4.20;99.90;;;;;;5056080;28;20100;-75
2023/03/11 06:20:47;;;;;;;0.30;0.30;;;-4.20;99.90;;;;;;5056283;28;20374;-76
2023/03/11 06:23:14;;;;;;;0.30;0.30;;;-4.20;99.90;;;;;;5038024;28;20036;-76
2023/03/11 06:25:40;;;;;;;0.20;0.20;;;-4.10;99.90;;;;;;5056421;28;20389;-76
2023/03/11 06:28:05;;;;;;;0.30;0.30;;;-4.00;99.90;;;;;;5056029;28;20029;-76
2023/03/11 06:30:31;;;;;;;0.20;0.20;;;-4.00;99.90;;;;;;5037905;28;20028;-76
2023/03/11 06:32:56;;;;;;;0.20;0.20;;;-3.90;99.90;;;;;;5055677;28;20033;-76
2023/03/11 06:35:22;;;;;;;0.20;0.20;;;-3.70;99.90;;;;;;5056036;28;20044;-75
2023/03/11 06:37:47;;;;;;;0.20;0.20;;;-3.60;99.90;;;;;;5055959;28;20056;-76
2023/03/11 06:40:13;;;;;;;0.30;0.30;;;-3.60;99.90;;;;;;5037753;28;20075;-76
2023/03/11 06:42:39;;;;;;;0.20;0.20;;;-3.50;99.90;;;;;;5055888;28;20036;-76
2023/03/11 06:45:05;;;;;;;0.22;0.22;;;-3.50;99.90;;;;;;5055536;28;20025;-76
2023/03/11 06:47:31;;;;;;;0.20;0.20;;;-3.50;99.90;;;;;;5037531;28;20029;-76
2023/03/11 06:49:56;;;;;;;0.20;0.20;;;-3.40;99.90;;;;;;5055395;28;20055;-76
2023/03/11 06:52:22;;;;;;;0.20;0.20;;;-3.30;99.90;;;;;;5037483;28;20025;-76
2023/03/11 06:54:48;;;;;;;0.15;0.15;;;-3.20;99.90;;;;;;5055338;28;20028;-76
2023/03/11 06:57:13;;;;;;;0.20;0.20;;;-3.00;99.90;;;;;;5037451;28;20070;-76
2023/03/11 06:59:39;;;;;;;0.10;0.10;;;-2.80;99.90;;;;;;5055176;28;20025;-76
2023/03/11 07:02:05;;;;;;;0.10;0.10;;;-2.70;99.90;;;;;;5037401;28;20025;-76
2023/03/11 07:04:31;;;;;;;0.20;0.20;;;-2.60;99.90;;;;;;5037353;28;20036;-76
2023/03/11 07:06:57;;;;;;;0.20;0.20;;;-2.50;99.90;;;;;;5055391;28;20501;-76
2023/03/11 07:09:24;;;;;;;0.20;0.20;;;-2.40;99.90;;;;;;5054976;28;20037;-76
2023/03/11 07:11:50;;;;;;;0.10;0.10;;;-2.30;99.90;;;;;;5055133;28;20021;-76
2023/03/11 07:14:17;;;;;;;0.20;0.20;;;-2.20;99.90;;;;;;5054971;28;20108;-76
2023/03/11 07:16:43;;;;;;;0.10;0.10;;;-2.10;99.90;;;;;;5037015;28;20039;-76
2023/03/11 07:19:10;;;;;;;0.20;0.20;;;-2.00;99.90;;;;;;5036939;28;20021;-76
2023/03/11 07:21:35;;;;;;;0.20;0.20;;;-1.80;99.90;;;;;;5036966;28;20060;-76
2023/03/11 07:24:02;;;;;;;0.20;0.20;;;-1.80;99.90;;;;;;5054861;28;20053;-76
2023/03/11 07:26:29;;;;;;;0.20;0.20;;;-1.60;99.90;;;;;;5055073;28;20028;-76
2023/03/11 07:28:55;;;;;;;0.15;0.15;;;-1.40;99.90;;;;;;5055172;28;20025;-76
2023/03/11 07:31:24;;;;;;;0.20;0.20;;;-1.20;99.90;;;;;;5055029;28;20024;-77
2023/03/11 07:33:50;;;;;;;0.20;0.20;;;-1.00;99.90;;;;;;5037348;28;20021;-76
2023/03/11 07:36:18;;;;;;;0.13;0.13;;;-0.90;99.90;;;;;;5036934;28;20028;-76
2023/03/11 07:38:44;;;;;;;0.10;0.10;;;-0.80;99.90;;;;;;5054422;28;20032;-76
2023/03/11 07:41:13;;;;;;;0.20;0.20;;;-0.70;99.90;;;;;;5054632;28;20021;-76
2023/03/11 07:43:39;;;;;;;0.20;0.20;;;-0.60;99.90;;;;;;5054678;28;20029;-76
2023/03/11 07:46:08;;;;;;;0.20;0.20;;;-0.40;99.90;;;;;;5036596;28;20029;-76
2023/03/11 07:48:35;;;;;;;0.15;0.15;;;-0.20;99.90;;;;;;5036326;28;20033;-76
2023/03/11 07:51:03;;;;;;;0.20;0.20;;;-0.10;99.90;;;;;;5036407;28;20036;-76
2023/03/11 07:53:29;;;;;;;0.20;0.20;;;0.00;99.90;;;;;;5054473;28;20449;-76
2023/03/11 07:55:56;;;;;;;0.20;0.20;;;0.00;99.90;;;;;;5054149;28;20048;-76
2023/03/11 07:58:22;;;;;;;0.10;0.10;;;0.10;99.90;;;;;;5054279;28;20371;-76
2023/03/11 08:00:47;;;;;;;0.20;0.20;;;0.20;99.90;;;;;;5037047;28;20021;-76
2023/03/11 08:03:13;;;;;;;0.20;0.20;;;0.30;99.90;;;;;;5036927;28;20124;-76
2023/03/11 08:05:39;;;;;;;0.20;0.20;;;0.40;99.90;;;;;;5054274;28;20029;-76
2023/03/11 08:08:04;;;;;;;0.20;0.20;;;0.40;99.90;;;;;;5054322;28;20116;-76
2023/03/11 08:10:30;;;;;;;0.30;0.30;;;0.50;99.90;;;;;;5053896;28;20100;-76
2023/03/11 08:12:55;;;;;;;0.20;0.20;;;0.70;99.90;;;;;;5035987;28;20017;-76
2023/03/11 08:15:21;;;;;;;0.20;0.20;;;0.90;99.90;;;;;;5053866;28;20075;-76
2023/03/11 08:17:46;;;;;;;0.20;0.20;;;1.00;99.90;;;;;;5053751;28;20025;-76
2023/03/11 08:20:12;;;;;;;0.20;0.20;;;1.00;99.90;;;;;;5036775;28;20021;-76
2023/03/11 08:22:38;;;;;;;0.10;0.10;;;1.20;99.90;;;;;;5053745;28;20028;-76
2023/03/11 08:25:04;;;;;;;0.10;0.10;;;1.20;99.90;;;;;;5035502;28;20238;-76
2023/03/11 08:27:29;;;;;;;0.20;0.20;;;1.20;99.90;;;;;;5053564;28;20029;-76
2023/03/11 08:29:55;;;;;;;0.20;0.20;;;1.40;99.90;;;;;;5053913;28;20033;-76
2023/03/11 08:32:20;;;;;;;0.20;0.20;;;1.50;99.90;;;;;;5053815;28;20028;-76
2023/03/11 08:34:46;;;;;;;0.17;0.17;;;1.60;99.90;;;;;;5053558;28;20057;-76
2023/03/11 08:37:11;;;;;;;0.20;0.20;;;1.80;99.90;;;;;;5053481;28;20021;-76
2023/03/11 08:39:37;;;;;;;0.20;0.20;;;1.70;99.90;;;;;;5035467;28;20017;-76
2023/03/11 08:42:02;;;;;;;0.20;0.20;;;1.80;99.90;;;;;;5035485;28;20036;-76
2023/03/11 08:44:28;;;;;;;0.30;0.30;;;1.90;99.90;;;;;;5053440;28;20025;-76
2023/03/11 08:46:54;;;;;;;0.20;0.20;;;2.00;99.90;;;;;;5053442;28;20102;-76
2023/03/11 08:49:19;;;;;;;0.20;0.20;;;2.10;99.90;;;;;;5053365;28;20112;-76
2023/03/11 08:51:45;;;;;;;0.15;0.15;;;2.20;99.90;;;;;;5053550;28;20467;-76
2023/03/11 08:54:10;;;;;;;0.10;0.10;;;2.40;99.90;;;;;;5035526;28;20490;-76
2023/03/11 08:56:36;;;;;;;0.10;0.10;;;2.50;99.90;;;;;;5053925;28;20466;-76
2023/03/11 08:59:01;;;;;;;0.15;0.15;;;2.50;99.90;;;;;;5053111;28;20029;-76
2023/03/11 09:01:28;;;;;;;0.20;0.20;;;2.60;99.90;;;;;;5053169;28;20040;-76
2023/03/11 09:03:54;;;;;;;0.20;0.20;;;2.70;99.90;;;;;;5053404;28;20522;-77
2023/03/11 09:06:20;;;;;;;0.20;0.20;;;3.00;99.90;;;;;;5053079;28;20118;-76
2023/03/11 09:08:47;;;;;;;0.30;0.30;;;3.10;99.90;;;;;;5035060;28;20394;-76
2023/03/11 09:11:14;;;;;;;0.20;0.20;;;3.20;99.90;;;;;;5053371;28;20043;-76
2023/03/11 09:13:40;;;;;;;0.20;0.20;;;3.30;99.90;;;;;;5052905;28;20060;-76
2023/03/11 09:16:13;;;;;;;0.20;0.20;;;3.50;99.90;;;;;;5035071;28;20029;-76
2023/03/11 09:18:39;;;;;;;0.17;0.17;;;3.70;99.90;;;;;;5053473;28;20389;-76
2023/03/11 09:21:04;;;;;;;0.20;0.20;;;3.90;99.90;;;;;;5053201;28;20029;-76
2023/03/11 09:23:30;;;;;;;0.10;0.10;;;4.10;99.90;;;;;;5053140;28;20040;-75
2023/03/11 09:25:56;;;;;;;0.20;0.20;;;4.20;99.90;;;;;;5053401;28;20024;-75
2023/03/11 09:28:22;;;;;;;0.20;0.20;;;4.40;99.90;;;;;;5034875;28;20095;-75
2023/03/11 09:30:47;;;;;;;0.13;0.13;;;4.40;99.90;;;;;;5034958;28;20500;-75
2023/03/11 09:33:13;;;;;;;0.20;0.20;;;4.50;99.90;;;;;;5053030;28;20053;-75
2023/03/11 09:35:38;;;;;;;0.20;0.20;;;4.70;99.90;;;;;;5052754;28;20489;-75
2023/03/11 09:38:04;;;;;;;0.20;0.20;;;4.80;99.90;;;;;;5055937;28;20028;-75
2023/03/11 09:40:47;;;;;;;0.20;0.20;;;4.80;99.90;;;;;;5056936;28;20052;-75
2023/03/11 09:43:29;;;;;;;0.20;0.20;;;5.00;99.90;;;;;;5038853;28;20040;-76
2023/03/11 09:46:19;;;;;;;0.20;0.20;;;5.10;99.90;;;;;;5056671;28;20075;-75
2023/03/11 09:49:01;;;;;;;0.10;0.10;;;5.20;99.90;;;;;;5056605;28;20131;-75
2023/03/11 09:51:31;;;;;;;0.30;0.30;;;5.30;99.90;;;;;;5038594;28;20128;-75
2023/03/11 09:54:08;;;;;;;0.10;0.10;;;5.40;99.90;;;;;;5053352;22;20041;-73
2023/03/11 09:56:34;;;;;;;0.17;0.17;;;5.40;99.90;;;;;;5037053;28;20021;-72
2023/03/11 09:59:05;;;;;;;0.20;0.20;;;5.40;99.90;;;;;;5036475;28;20013;-72
2023/03/11 10:01:42;;;;;;;0.20;0.20;;;5.40;99.90;;;;;;5036563;28;20033;-72
2023/03/11 10:04:14;;;;;;;0.20;0.20;;;5.30;99.90;;;;;;5036365;28;20026;-72
2023/03/11 10:06:43;;;;;;;0.20;0.20;;;5.40;99.90;;;;;;5036370;28;20021;-72
2023/03/11 10:09:11;;;;;;;0.17;0.17;;;5.50;99.90;;;;;;5036577;28;20029;-72
2023/03/11 10:12:01;;;;;;;0.10;0.10;;;5.50;99.90;;;;;;5036134;28;20025;-72
2023/03/11 10:14:40;;;;;;;0.20;0.20;;;5.60;99.90;;;;;;5036254;28;20372;-72
2023/03/11 10:17:27;;;;;;;0.17;0.17;;;5.60;99.90;;;;;;5036451;28;20079;-72
2023/03/11 10:20:15;;;;;;;0.20;0.20;;;5.60;99.90;;;;;;5036061;28;20026;-72
2023/03/11 10:22:59;;;;;;;0.30;0.30;;;5.70;99.90;;;;;;5036363;28;20395;-72
2023/03/11 10:25:41;;;;;;;0.20;0.20;;;5.60;99.90;;;;;;5018190;28;20036;-72
2023/03/11 10:28:17;;;;;;;0.20;0.20;;;5.60;99.90;;;;;;5035972;28;20029;-72
2023/03/11 10:30:56;;;;;;;0.10;0.10;;;5.80;99.90;;;;;;5018214;28;20025;-73
2023/03/11 10:33:43;;;;;;;0.20;0.20;;;5.80;99.90;;;;;;5036174;28;20033;-72
2023/03/11 10:36:22;;;;;;;0.20;0.20;;;5.80;99.90;;;;;;5036119;28;20020;-73
2023/03/11 10:38:50;;;;;;;0.15;0.15;;;5.90;99.90;;;;;;5036052;28;20426;-72
2023/03/11 10:41:38;;;;;;;0.10;0.10;;;6.00;99.90;;;;;;5017927;28;20033;-72
2023/03/11 10:44:10;;;;;;;0.20;0.20;;;5.80;99.90;;;;;;5035583;28;20025;-72
2023/03/11 10:46:35;;;;;;;0.10;0.10;;;5.90;99.90;;;;;;5035746;28;20024;-72
2023/03/11 10:49:01;;;;;;;0.20;0.20;;;6.00;99.90;;;;;;5035449;28;20088;-72
2023/03/11 10:51:33;;;;;;;0.20;0.20;;;6.20;99.90;;;;;;5035470;28;20112;-72
2023/03/11 10:54:01;;;;;;;0.20;0.20;;;6.40;99.90;;;;;;5035294;28;20025;-72
2023/03/11 10:56:33;;;;;;;0.20;0.20;;;6.30;99.90;;;;;;5035663;28;20359;-72
2023/03/11 10:59:00;;;;;;;0.20;0.20;;;6.40;99.90;;;;;;5017814;28;20479;-72
2023/03/11 11:01:27;;;;;;;0.10;0.10;;;6.50;99.90;;;;;;5035562;28;20079;-72
2023/03/11 11:03:55;;;;;;;0.20;0.20;;;6.50;99.90;;;;;;5035193;28;20030;-72
2023/03/11 11:06:35;;;;;;;0.20;0.20;;;6.40;99.90;;;;;;5035236;28;20044;-73
2023/03/11 11:09:03;;;;;;;0.20;0.20;;;6.40;99.90;;;;;;5017410;28;20036;-73
2023/03/11 11:11:29;;;;;;;0.20;0.20;;;6.40;99.90;;;;;;5035275;28;20029;-73
2023/03/11 11:13:56;;;;;;;0.20;0.20;;;6.40;99.90;;;;;;5035272;28;20095;-72
2023/03/11 11:16:22;;;;;;;0.10;0.10;;;6.40;99.90;;;;;;5035015;28;20491;-72
2023/03/11 11:18:53;;;;;;;0.20;0.20;;;6.60;99.90;;;;;;5017207;28;20033;-72
2023/03/11 11:21:38;;;;;;;0.10;0.10;;;6.70;99.90;;;;;;5017427;28;20438;-73
2023/03/11 11:24:16;;;;;;;0.20;0.20;;;6.70;99.90;;;;;;5034830;28;20033;-73
2023/03/11 11:27:01;;;;;;;0.20;0.20;;;6.50;99.90;;;;;;5035108;28;20029;-73
2023/03/11 11:29:26;;;;;;;0.20;0.20;;;6.20;99.90;;;;;;5035050;28;20021;-73
2023/03/11 11:32:08;;;;;;;0.20;0.20;;;5.90;99.90;;;;;;5034639;28;20033;-73
2023/03/11 11:34:34;;;;;;;0.20;0.20;;;5.90;99.90;;;;;;5034628;28;20036;-73
2023/03/11 11:37:03;;;;;;;0.17;0.17;;;6.30;99.90;;;;;;5034906;28;20101;-73
2023/03/11 11:39:52;;;;;;;0.20;0.20;;;6.80;99.90;;;;;;5034789;28;20060;-73
2023/03/11 11:42:19;;;;;;;0.20;0.20;;;7.30;99.90;;;;;;5034583;28;20044;-73
2023/03/11 11:44:49;;;;;;;0.30;0.30;;;7.00;99.90;;;;;;5034697;28;20396;-72
2023/03/11 11:47:20;;;;;;;0.20;0.20;;;6.10;99.90;;;;;;5034482;28;20060;-73
2023/03/11 11:49:55;;;;;;;0.20;0.20;;;5.60;99.90;;;;;;5034396;28;20033;-73
2023/03/11 11:52:29;;;;;;;0.20;0.20;;;5.60;99.90;;;;;;5034590;28;20112;-72
2023/03/11 11:55:00;;;;;;;0.20;0.20;;;5.70;99.90;;;;;;5034238;28;20066;-72
2023/03/11 11:57:25;;;;;;;0.20;0.20;;;6.00;99.90;;;;;;5034307;28;20013;-72
2023/03/11 11:59:51;;;;;;;0.20;0.20;;;6.00;99.90;;;;;;5033513;28;20108;-73
2023/03/11 12:02:36;;;;;;;0.10;0.10;;;5.80;99.90;;;;;;5034211;28;20044;-73
2023/03/11 12:05:24;;;;;;;0.10;0.10;;;5.90;99.90;;;;;;5034067;28;20057;-73
2023/03/11 12:07:58;;;;;;;0.20;0.20;;;6.60;99.90;;;;;;5034128;28;20076;-73
2023/03/11 12:10:32;;;;;;;0.20;0.20;;;7.00;99.90;;;;;;5034328;28;20076;-73
2023/03/11 12:13:34;;;;;;;0.20;0.20;;;7.40;99.90;;;;;;5033855;28;20503;-73
2023/03/11 12:16:08;;;;;;;0.20;0.20;;;7.60;99.90;;;;;;5033967;28;20056;-73
2023/03/11 12:19:06;;;;;;;0.20;0.20;;;8.20;99.90;;;;;;5016227;28;20029;-73
2023/03/11 12:22:09;;;;;;;0.10;0.10;;;8.40;99.90;;;;;;4999653;28;20048;-73
2023/03/11 12:24:46;;;;;;;0.20;0.20;;;7.40;99.90;;;;;;5033696;28;20056;-73
2023/03/11 12:27:41;;;;;;;0.20;0.20;;;6.30;99.90;;;;;;5033995;28;20487;-72
2023/03/11 12:30:16;;;;;;;0.20;0.20;;;5.10;99.90;;;;;;5026500;28;20046;-71
2023/03/11 12:32:50;;;;;;;0.20;0.20;;;4.20;99.90;;;;;;5033623;28;20116;-71
2023/03/11 12:35:19;;;;;;;0.20;0.20;;;3.80;99.90;;;;;;5033885;28;20026;-71
2023/03/11 12:37:53;;;;;;;0.20;0.20;;;3.60;99.90;;;;;;5033512;28;20096;-71
2023/03/11 12:40:38;;;;;;;0.30;0.30;;;3.90;99.90;;;;;;5033639;28;20028;-71
2023/03/11 12:43:03;;;;;;;0.20;0.20;;;4.80;99.90;;;;;;5033391;28;20053;-71
2023/03/11 12:45:52;;;;;;;0.10;0.10;;;5.60;99.90;;;;;;5033445;28;20508;-71
2023/03/11 12:48:24;;;;;;;0.20;0.20;;;6.60;99.90;;;;;;5033607;28;20033;-71
2023/03/11 12:50:49;;;;;;;0.20;0.20;;;7.30;99.90;;;;;;5033615;28;20022;-71
2023/03/11 12:53:16;;;;;;;0.20;0.20;;;7.70;99.90;;;;;;5033102;28;20038;-71
2023/03/11 12:56:01;;;;;;;0.20;0.20;;;7.50;99.90;;;;;;5033285;28;20029;-71
2023/03/11 12:58:52;;;;;;;0.28;0.28;;;7.50;99.90;;;;;;5033372;28;20099;-72